Language: 


Des rapports , des résumés tant et plus, au choix de chacun....


Données statistiques de la station
Quotidien Rapport Juin 22, 2017 Unités:  Métrique    Anglais   les deux
« Précédent Jour
Suivant Jour »
Quotidien Hebdomadaire Mensuel Annuel Actuel
  Haut: Bas: Moyen:
Température: 30.6 °C 0.0 °C 23 °C
Pt de rosée: 22.0 °C 13.0 °C 17.1 °C
Humidité: 89 % 0 % 69 %
Vitesse du vent: 37.5 km/h 0.0 km/h 11.5 km/h
Rafales: 41.7 km/h - -
Vent:- - WSW
Pression: 1015.1 hPa 0.0 hPa -
Précipitation: 0.0 mm    
Historical Graphs
 
 
Données statistiques pour Juin 22, 2017
Heure Température Point de rosée Pression Vent Vitesse du vent Refales Humidité Pluie (taux horaire)
00:02 25.0 °C 17.0 °C 1013.1 hPa Calm   2.6 km/h 62 % 0.0 mm
00:07 24.8 °C 17.0 °C 1013.1 hPa Calm   2.6 km/h 62 % 0.0 mm
00:12 24.8 °C 17.0 °C 1013.1 hPa Calm     62 % 0.0 mm
00:15 24.8 °C 17.0 °C 1013.1 hPa Calm     62 % 0.0 mm
00:20 24.8 °C 17.0 °C 1013.1 hPa Calm     62 % 0.0 mm
00:25 24.8 °C 17.0 °C 1013.1 hPa Calm     62 % 0.0 mm
00:30 24.8 °C 17.0 °C 1013.1 hPa Calm     62 % 0.0 mm
00:35 24.8 °C 17.0 °C 1013.1 hPa Calm     62 % 0.0 mm
00:40 23.3 °C 17.0 °C 1013.1 hPa Calm     66 % 0.0 mm
00:45 23.3 °C 17.0 °C 1013.1 hPa Calm     66 % 0.0 mm
00:50 23.3 °C 17.0 °C 1013.1 hPa Calm     66 % 0.0 mm
00:55 23.3 °C 17.0 °C 1013.1 hPa Calm     66 % 0.0 mm
01:00 23.3 °C 17.0 °C 1013.1 hPa Calm     66 % 0.0 mm
01:05 23.3 °C 17.0 °C 1013.1 hPa Calm     66 % 0.0 mm
01:11 23.3 °C 17.0 °C 1013.1 hPa Calm     66 % 0.0 mm
01:16 23.3 °C 17.0 °C 1013.1 hPa Calm     66 % 0.0 mm
01:21 23.3 °C 17.0 °C 1013.1 hPa Calm     66 % 0.0 mm
01:26 23.3 °C 17.0 °C 1013.1 hPa Calm     66 % 0.0 mm
01:31 23.3 °C 17.0 °C 1013.1 hPa Calm     66 % 0.0 mm
01:36 22.3 °C 17.0 °C 1013.1 hPa Calm     70 % 0.0 mm
01:41 22.3 °C 17.0 °C 1013.1 hPa Calm     70 % 0.0 mm
01:46 22.3 °C 17.0 °C 1013.1 hPa Calm     70 % 0.0 mm
01:51 22.1 °C 17.0 °C 1013.1 hPa West 5.8 km/h 6.1 km/h 72 % 0.0 mm
01:56 22.1 °C 17.0 °C 1013.1 hPa Calm   6.4 km/h 72 % 0.0 mm
02:01 22.1 °C 17.0 °C 1013.1 hPa Calm   6.4 km/h 72 % 0.0 mm
02:06 22.4 °C 17.0 °C 1013.1 hPa Calm   2.1 km/h 73 % 0.0 mm
02:11 22.4 °C 17.0 °C 1013.1 hPa Calm     73 % 0.0 mm
02:16 22.4 °C 17.0 °C 1012.1 hPa Calm     73 % 0.0 mm
02:22 22.4 °C 17.0 °C 1012.1 hPa Calm     73 % 0.0 mm
02:27 22.4 °C 17.0 °C 1012.1 hPa Calm     73 % 0.0 mm
02:32 22.4 °C 17.0 °C 1013.1 hPa Calm     73 % 0.0 mm
02:37 21.6 °C 17.0 °C 1013.1 hPa Calm     75 % 0.0 mm
02:42 21.4 °C 17.0 °C 1013.1 hPa Calm     76 % 0.0 mm
02:47 21.3 °C 17.0 °C 1012.1 hPa Calm     76 % 0.0 mm
02:52 21.2 °C 17.0 °C 1012.1 hPa Calm   2.6 km/h 77 % 0.0 mm
02:57 21.3 °C 17.0 °C 1012.1 hPa Calm   2.6 km/h 78 % 0.0 mm
03:02 21.4 °C 18.0 °C 1012.1 hPa Calm     80 % 0.0 mm
03:07 21.4 °C 18.0 °C 1012.1 hPa Calm     80 % 0.0 mm
03:08 21.4 °C 18.0 °C 1012.1 hPa Calm     80 % 0.0 mm
03:13 21.4 °C 18.0 °C 1012.1 hPa Calm     81 % 0.0 mm
03:18 21.4 °C 18.0 °C 1012.1 hPa Calm     80 % 0.0 mm
03:23 21.4 °C 18.0 °C 1012.1 hPa Calm     80 % 0.0 mm
03:28 21.3 °C 18.0 °C 1012.1 hPa Calm     80 % 0.0 mm
03:33 21.2 °C 18.0 °C 1012.1 hPa Calm     80 % 0.0 mm
03:38 21.1 °C 18.0 °C 1012.1 hPa Calm     80 % 0.0 mm
03:44 20.9 °C 18.0 °C 1012.1 hPa Calm     80 % 0.0 mm
03:49 20.9 °C 18.0 °C 1011.1 hPa Calm     81 % 0.0 mm
03:54 20.8 °C 17.0 °C 1011.1 hPa Calm     81 % 0.0 mm
03:59 20.7 °C 17.0 °C 1011.1 hPa Calm     81 % 0.0 mm
04:04 20.7 °C 17.0 °C 1011.1 hPa Calm     81 % 0.0 mm
04:09 20.5 °C 17.0 °C 1011.1 hPa Calm     81 % 0.0 mm
04:14 20.4 °C 17.0 °C 1011.1 hPa Calm     82 % 0.0 mm
04:19 20.3 °C 17.0 °C 1011.1 hPa Calm     82 % 0.0 mm
04:24 20.2 °C 17.0 °C 1011.1 hPa Calm     82 % 0.0 mm
04:29 20.1 °C 17.0 °C 1011.1 hPa Calm     82 % 0.0 mm
04:34 19.9 °C 17.0 °C 1010.0 hPa Calm     83 % 0.0 mm
04:39 19.8 °C 17.0 °C 1010.0 hPa Calm     84 % 0.0 mm
04:44 19.8 °C 17.0 °C 1010.0 hPa Calm     84 % 0.0 mm
04:49 19.8 °C 17.0 °C 1010.0 hPa Calm     85 % 0.0 mm
04:54 19.7 °C 17.0 °C 1010.0 hPa Calm   4.0 km/h 85 % 0.0 mm
04:59 19.7 °C 17.0 °C 1010.0 hPa Calm   4.0 km/h 85 % 0.0 mm
05:04 19.6 °C 17.0 °C 1011.1 hPa Calm   3.5 km/h 85 % 0.0 mm
05:09 19.5 °C 17.0 °C 1011.1 hPa West 3.2 km/h 3.5 km/h 85 % 0.0 mm
05:14 19.5 °C 17.0 °C 1011.1 hPa Calm   4.0 km/h 86 % 0.0 mm
05:19 19.4 °C 17.0 °C 1010.0 hPa Calm   4.0 km/h 86 % 0.0 mm
05:24 19.4 °C 17.0 °C 1010.0 hPa Calm     86 % 0.0 mm
05:29 19.4 °C 17.0 °C 1010.0 hPa Calm     86 % 0.0 mm
05:34 19.4 °C 17.0 °C 1011.1 hPa Calm     87 % 0.0 mm
05:39 19.5 °C 18.0 °C 1011.1 hPa WSW 6.9 km/h 7.9 km/h 88 % 0.0 mm
05:44 19.5 °C 18.0 °C 1011.1 hPa Calm   7.9 km/h 87 % 0.0 mm
05:49 19.7 °C 18.0 °C 1010.0 hPa WSW 5.5 km/h 9.0 km/h 88 % 0.0 mm
05:55 19.9 °C 18.0 °C 1010.0 hPa West 7.9 km/h 9.0 km/h 89 % 0.0 mm
06:00 19.9 °C 18.0 °C 1010.0 hPa Calm   9.0 km/h 88 % 0.0 mm
06:05 19.9 °C 18.0 °C 1011.1 hPa Calm   7.9 km/h 88 % 0.0 mm
06:10 19.8 °C 18.0 °C 1011.1 hPa Calm     88 % 0.0 mm
06:13 19.8 °C 18.0 °C 1011.1 hPa Calm     88 % 0.0 mm
06:18 19.8 °C 18.0 °C 1011.1 hPa WSW 4.3 km/h 4.3 km/h 88 % 0.0 mm
06:23 19.8 °C 18.0 °C 1011.1 hPa Calm   4.3 km/h 87 % 0.0 mm
06:28 19.9 °C 18.0 °C 1011.1 hPa Calm   5.8 km/h 88 % 0.0 mm
06:34 20.1 °C 18.0 °C 1011.1 hPa Calm   6.4 km/h 88 % 0.0 mm
06:39 20.2 °C 18.0 °C 1011.1 hPa West 5.0 km/h 7.6 km/h 88 % 0.0 mm
06:44 20.4 °C 18.0 °C 1011.1 hPa WSW 6.1 km/h 7.6 km/h 88 % 0.0 mm
06:49 20.7 °C 19.0 °C 1011.1 hPa West 1.4 km/h 7.6 km/h 88 % 0.0 mm
06:54 21.0 °C 19.0 °C 1011.1 hPa West 9.3 km/h 9.3 km/h 88 % 0.0 mm
06:59 21.4 °C 19.0 °C 1011.1 hPa West 9.0 km/h 9.7 km/h 87 % 0.0 mm
07:04 21.7 °C 20.0 °C 1011.1 hPa WSW 9.7 km/h 10.1 km/h 87 % 0.0 mm
07:09 21.9 °C 20.0 °C 1011.1 hPa SSW 6.1 km/h 12.2 km/h 86 % 0.0 mm
07:14 22.0 °C 19.0 °C 1011.1 hPa Calm   12.2 km/h 84 % 0.0 mm
07:19 22.3 °C 20.0 °C 1010.0 hPa WSW 9.7 km/h 11.9 km/h 84 % 0.0 mm
07:24 22.4 °C 19.0 °C 1010.0 hPa WSW 9.0 km/h 12.2 km/h 82 % 0.0 mm
07:29 22.5 °C 20.0 °C 1010.0 hPa West 7.9 km/h 12.2 km/h 82 % 0.0 mm
07:34 22.7 °C 19.0 °C 1011.1 hPa West 9.7 km/h 12.2 km/h 81 % 0.0 mm
07:39 22.9 °C 20.0 °C 1011.1 hPa Calm   12.2 km/h 81 % 0.0 mm
07:44 23.0 °C 20.0 °C 1011.1 hPa WSW 9.7 km/h 14.0 km/h 80 % 0.0 mm
07:49 23.1 °C 20.0 °C 1011.1 hPa WSW 10.5 km/h 14.0 km/h 80 % 0.0 mm
07:54 23.3 °C 20.0 °C 1011.1 hPa WSW 14.0 km/h 14.0 km/h 79 % 0.0 mm
08:00 23.4 °C 20.0 °C 1011.1 hPa West 14.8 km/h 15.4 km/h 79 % 0.0 mm
08:05 23.6 °C 20.0 °C 1011.1 hPa West 6.1 km/h 15.4 km/h 79 % 0.0 mm
08:10 23.7 °C 20.0 °C 1011.1 hPa West 8.7 km/h 15.8 km/h 78 % 0.0 mm
08:15 23.7 °C 20.0 °C 1011.1 hPa WSW 13.0 km/h 15.8 km/h 77 % 0.0 mm
08:20 23.8 °C 20.0 °C 1011.1 hPa West 14.0 km/h 20.1 km/h 77 % 0.0 mm
08:25 23.8 °C 20.0 °C 1011.1 hPa West 13.0 km/h 20.1 km/h 77 % 0.0 mm
08:30 24.0 °C 20.0 °C 1011.1 hPa SSW 9.3 km/h 17.2 km/h 77 % 0.0 mm
08:35 24.4 °C 20.0 °C 1011.1 hPa West 10.8 km/h 16.3 km/h 77 % 0.0 mm
08:40 24.5 °C 20.0 °C 1011.1 hPa West 9.7 km/h 16.6 km/h 75 % 0.0 mm
08:45 24.8 °C 20.0 °C 1011.1 hPa WSW 10.5 km/h 16.6 km/h 75 % 0.0 mm
08:50 24.9 °C 21.0 °C 1011.1 hPa West 10.1 km/h 14.8 km/h 75 % 0.0 mm
08:55 25.2 °C 21.0 °C 1011.1 hPa West 11.1 km/h 11.6 km/h 74 % 0.0 mm
09:00 25.4 °C 20.0 °C 1011.1 hPa WSW 7.9 km/h 11.6 km/h 73 % 0.0 mm
09:05 25.5 °C 20.0 °C 1011.1 hPa West 8.7 km/h 14.0 km/h 71 % 0.0 mm
09:10 25.7 °C 20.0 °C 1011.1 hPa West 11.9 km/h 15.4 km/h 71 % 0.0 mm
09:15 25.9 °C 21.0 °C 1011.1 hPa West 10.1 km/h 15.4 km/h 71 % 0.0 mm
09:20 26.2 °C 21.0 °C 1011.1 hPa WSW 9.7 km/h 16.6 km/h 71 % 0.0 mm
09:25 26.5 °C 21.0 °C 1011.1 hPa WSW 10.1 km/h 16.6 km/h 71 % 0.0 mm
09:35 26.9 °C 21.0 °C 1011.1 hPa SW 6.4 km/h 14.0 km/h 69 % 0.0 mm
09:36 26.9 °C 21.0 °C 1011.1 hPa Calm   14.0 km/h 69 % 0.0 mm
09:41 27.3 °C 21.0 °C 1011.1 hPa SW 9.3 km/h 14.0 km/h 68 % 0.0 mm
09:46 27.4 °C 21.0 °C 1011.1 hPa WSW 5.8 km/h 11.6 km/h 68 % 0.0 mm
09:51 27.6 °C 21.0 °C 1011.1 hPa WSW 7.9 km/h 12.2 km/h 67 % 0.0 mm
09:56 27.7 °C 21.0 °C 1011.1 hPa WSW 12.2 km/h 13.0 km/h 66 % 0.0 mm
10:01 27.7 °C 21.0 °C 1011.1 hPa West 9.0 km/h 16.6 km/h 65 % 0.0 mm
10:06 27.7 °C 21.0 °C 1011.1 hPa WSW 10.5 km/h 16.6 km/h 64 % 0.0 mm
10:11 28.0 °C 21.0 °C 1011.1 hPa WSW 6.9 km/h 14.0 km/h 65 % 0.0 mm
10:16 28.5 °C 22.0 °C 1011.1 hPa SW 6.4 km/h 15.8 km/h 64 % 0.0 mm
10:21 28.4 °C 21.0 °C 1011.1 hPa WSW 9.0 km/h 15.8 km/h 64 % 0.0 mm
10:26 28.6 °C 21.0 °C 1011.1 hPa WSW 5.8 km/h 11.9 km/h 63 % 0.0 mm
10:31 28.8 °C 21.0 °C 1011.1 hPa SW 6.4 km/h 13.7 km/h 63 % 0.0 mm
10:36 29.0 °C 21.0 °C 1011.1 hPa WSW 6.9 km/h 13.7 km/h 62 % 0.0 mm
10:41 29.0 °C 21.0 °C 1011.1 hPa West 11.6 km/h 16.3 km/h 60 % 0.0 mm
10:46 29.2 °C 21.0 °C 1011.1 hPa WSW 9.7 km/h 16.3 km/h 61 % 0.0 mm
10:52 29.5 °C 21.0 °C 1011.1 hPa WSW 7.6 km/h 16.9 km/h 61 % 0.0 mm
10:57 29.7 °C 21.0 °C 1011.1 hPa SSW 10.5 km/h 16.9 km/h 60 % 0.0 mm
11:02 29.8 °C 21.0 °C 1011.1 hPa SW 10.5 km/h 19.1 km/h 59 % 0.0 mm
11:07 29.9 °C 21.0 °C 1011.1 hPa West 12.6 km/h 19.1 km/h 59 % 0.0 mm
11:12 29.8 °C 20.0 °C 1011.1 hPa West 19.5 km/h 20.9 km/h 57 % 0.0 mm
11:17 29.4 °C 19.0 °C 1010.0 hPa West 16.3 km/h 21.2 km/h 55 % 0.0 mm
11:22 29.7 °C 20.0 °C 1010.0 hPa West 15.8 km/h 21.2 km/h 55 % 0.0 mm
11:27 29.7 °C 20.0 °C 1010.0 hPa West 16.6 km/h 27.7 km/h 54 % 0.0 mm
11:32 29.9 °C 20.0 °C 1010.0 hPa West 21.9 km/h 27.7 km/h 55 % 0.0 mm
11:38 0.0 °C 18.0 °C 0.0 hPa WSW 17.7 km/h 26.2 km/h 0 % 0.0 mm
11:43 30.2 °C 19.0 °C 1010.0 hPa West 20.6 km/h 26.2 km/h 49 % 0.0 mm
11:48 30.5 °C 20.0 °C 1011.1 hPa WSW 21.2 km/h 21.2 km/h 51 % 0.0 mm
11:53 30.4 °C 20.0 °C 1011.1 hPa SSW 12.6 km/h 21.2 km/h 52 % 0.0 mm
11:59 29.9 °C 18.0 °C 1011.1 hPa WSW 9.0 km/h 18.3 km/h 50 % 0.0 mm
12:04 29.8 °C 18.0 °C 1011.1 hPa West 12.6 km/h 20.1 km/h 49 % 0.0 mm
12:09 29.7 °C 17.0 °C 1011.1 hPa SW 13.0 km/h 20.1 km/h 47 % 0.0 mm
12:14 29.5 °C 17.0 °C 1011.1 hPa WSW 10.5 km/h 20.6 km/h 46 % 0.0 mm
12:19 29.7 °C 17.0 °C 1011.1 hPa SSW 19.8 km/h 27.4 km/h 45 % 0.0 mm
12:24 29.5 °C 16.0 °C 1011.1 hPa West 9.3 km/h 27.4 km/h 43 % 0.0 mm
12:29 29.4 °C 15.0 °C 1011.1 hPa SW 24.5 km/h 24.5 km/h 42 % 0.0 mm
12:34 29.4 °C 15.0 °C 1011.1 hPa West 10.8 km/h 24.5 km/h 42 % 0.0 mm
12:39 30.2 °C 16.0 °C 1011.1 hPa WSW 11.9 km/h 24.5 km/h 43 % 0.0 mm
12:44 30.6 °C 16.0 °C 1011.1 hPa WSW 25.6 km/h 25.6 km/h 42 % 0.0 mm
12:49 30.5 °C 17.0 °C 1011.1 hPa WSW 19.1 km/h 28.5 km/h 43 % 0.0 mm
12:51 30.6 °C 16.0 °C 1011.1 hPa WSW 20.6 km/h 28.5 km/h 42 % 0.0 mm
12:56 30.5 °C 17.0 °C 1011.1 hPa WSW 17.2 km/h 27.0 km/h 44 % 0.0 mm
13:01 30.3 °C 18.0 °C 1011.1 hPa WSW 13.0 km/h 27.7 km/h 46 % 0.0 mm
13:06 30.1 °C 18.0 °C 1011.1 hPa West 24.5 km/h 27.7 km/h 49 % 0.0 mm
13:11 29.5 °C 18.0 °C 1011.1 hPa West 16.9 km/h 31.4 km/h 50 % 0.0 mm
13:16 29.2 °C 18.0 °C 1011.1 hPa West 18.3 km/h 31.4 km/h 51 % 0.0 mm
13:19 29.2 °C 19.0 °C 1011.1 hPa WSW 15.8 km/h 24.8 km/h 52 % 0.0 mm
13:24 29.2 °C 19.0 °C 1011.1 hPa West 14.8 km/h 26.7 km/h 53 % 0.0 mm
13:34 29.1 °C 19.0 °C 1011.1 hPa West 21.6 km/h 30.2 km/h 52 % 0.0 mm
13:39 28.7 °C 19.0 °C 1011.1 hPa WSW 20.6 km/h 35.6 km/h 54 % 0.0 mm
13:44 28.4 °C 19.0 °C 1011.1 hPa WSW 21.2 km/h 41.7 km/h 55 % 0.0 mm
13:49 28.6 °C 19.0 °C 1012.1 hPa WSW 26.2 km/h 41.7 km/h 56 % 0.0 mm
13:54 28.6 °C 19.0 °C 1012.1 hPa WSW 21.2 km/h 28.5 km/h 56 % 0.0 mm
13:59 28.0 °C 18.0 °C 1012.1 hPa West 20.9 km/h 27.7 km/h 55 % 0.0 mm
14:01 28.0 °C 18.0 °C 1012.1 hPa West 23.8 km/h 27.7 km/h 55 % 0.0 mm
14:06 27.7 °C 18.0 °C 1012.1 hPa WSW 20.6 km/h 28.0 km/h 56 % 0.0 mm
14:11 27.6 °C 19.0 °C 1012.1 hPa WSW 16.3 km/h 28.0 km/h 57 % 0.0 mm
14:16 27.8 °C 19.0 °C 1012.1 hPa WSW 23.8 km/h 23.8 km/h 59 % 0.0 mm
14:21 27.8 °C 19.0 °C 1012.1 hPa West 19.8 km/h 24.5 km/h 57 % 0.0 mm
14:26 27.1 °C 18.0 °C 1012.1 hPa West 13.7 km/h 25.3 km/h 56 % 0.0 mm
14:31 27.0 °C 18.0 °C 1011.1 hPa WSW 20.1 km/h 25.9 km/h 57 % 0.0 mm
14:36 26.6 °C 18.0 °C 1011.1 hPa SW 32.3 km/h 32.3 km/h 57 % 0.0 mm
14:41 25.8 °C 17.0 °C 1011.1 hPa West 20.6 km/h 32.3 km/h 58 % 0.0 mm
14:46 25.6 °C 18.0 °C 1013.1 hPa WSW 22.4 km/h 36.0 km/h 60 % 0.0 mm
14:51 25.1 °C 17.0 °C 1013.1 hPa SW 16.6 km/h 36.0 km/h 60 % 0.0 mm
14:57 25.4 °C 17.0 °C 1013.1 hPa WSW 22.7 km/h 28.5 km/h 61 % 0.0 mm
15:02 25.3 °C 17.0 °C 1013.1 hPa WSW 20.9 km/h 32.0 km/h 61 % 0.0 mm
15:12 24.1 °C 16.0 °C 1013.1 hPa West 17.7 km/h 27.7 km/h 62 % 0.0 mm
15:17 23.8 °C 17.0 °C 1013.1 hPa West 15.8 km/h 28.0 km/h 64 % 0.0 mm
15:22 23.5 °C 16.0 °C 1013.1 hPa WSW 20.6 km/h 28.0 km/h 63 % 0.0 mm
15:27 22.8 °C 16.0 °C 1013.1 hPa WSW 16.9 km/h 25.9 km/h 64 % 0.0 mm
15:32 22.5 °C 16.0 °C 1012.1 hPa WSW 18.3 km/h 28.5 km/h 65 % 0.0 mm
15:37 22.8 °C 16.0 °C 1012.1 hPa SSW 15.1 km/h 28.5 km/h 67 % 0.0 mm
15:42 23.1 °C 16.0 °C 1012.1 hPa WSW 29.1 km/h 31.7 km/h 66 % 0.0 mm
15:47 22.9 °C 16.0 °C 1012.1 hPa West 16.9 km/h 31.7 km/h 65 % 0.0 mm
15:52 22.6 °C 16.0 °C 1012.1 hPa WSW 31.7 km/h 31.7 km/h 66 % 0.0 mm
15:57 22.5 °C 16.0 °C 1012.1 hPa WSW 20.1 km/h 31.7 km/h 66 % 0.0 mm
16:02 23.1 °C 16.0 °C 1013.1 hPa WSW 21.2 km/h 32.0 km/h 65 % 0.0 mm
16:07 23.2 °C 16.0 °C 1013.1 hPa West 14.0 km/h 33.8 km/h 64 % 0.0 mm
16:12 23.0 °C 16.0 °C 1013.1 hPa WSW 15.4 km/h 33.8 km/h 64 % 0.0 mm
16:15 23.0 °C 16.0 °C 1013.1 hPa SW 10.1 km/h 33.8 km/h 65 % 0.0 mm
16:22 0.0 °C 16.0 °C 1012.1 hPa Calm     0 % 0.0 mm
16:27 23.4 °C 16.0 °C 1012.1 hPa WSW 16.9 km/h 23.0 km/h 64 % 0.0 mm
16:32 24.1 °C 16.0 °C 1012.1 hPa WSW 21.2 km/h 24.8 km/h 62 % 0.0 mm
16:37 24.0 °C 16.0 °C 1012.1 hPa West 26.2 km/h 35.6 km/h 61 % 0.0 mm
16:42 23.9 °C 16.0 °C 1012.1 hPa WSW 15.4 km/h 35.6 km/h 62 % 0.0 mm
16:47 24.6 °C 17.0 °C 1012.1 hPa WSW 17.2 km/h 28.5 km/h 61 % 0.0 mm
16:52 24.8 °C 16.0 °C 1012.1 hPa SSW 27.7 km/h 28.5 km/h 59 % 0.0 mm
16:58 24.2 °C 16.0 °C 1012.1 hPa West 21.2 km/h 30.2 km/h 59 % 0.0 mm
16:59 24.2 °C 16.0 °C 1012.1 hPa WSW 23.0 km/h 30.2 km/h 59 % 0.0 mm
17:04 23.9 °C 16.0 °C 1012.1 hPa SW 24.5 km/h 30.2 km/h 61 % 0.0 mm
17:09 23.9 °C 16.0 °C 1012.1 hPa SSW 28.5 km/h 28.5 km/h 59 % 0.0 mm
17:14 23.4 °C 15.0 °C 1012.1 hPa WSW 24.5 km/h 32.3 km/h 58 % 0.0 mm
17:19 23.1 °C 14.0 °C 1012.1 hPa West 19.8 km/h 32.3 km/h 58 % 0.0 mm
17:24 22.7 °C 15.0 °C 1012.1 hPa WSW 25.6 km/h 31.7 km/h 60 % 0.0 mm
17:29 23.2 °C 15.0 °C 1012.1 hPa WSW 21.9 km/h 31.7 km/h 60 % 0.0 mm
17:33 23.4 °C 15.0 °C 1012.1 hPa West 37.5 km/h 37.5 km/h 59 % 0.0 mm
17:38 23.8 °C 15.0 °C 1012.1 hPa West 21.2 km/h 37.5 km/h 58 % 0.0 mm
17:43 23.7 °C 15.0 °C 1012.1 hPa WNW 20.6 km/h 37.5 km/h 57 % 0.0 mm
17:48 23.6 °C 15.0 °C 1013.1 hPa West 17.2 km/h 35.6 km/h 57 % 0.0 mm
17:53 23.7 °C 15.0 °C 1013.1 hPa West 19.5 km/h 35.6 km/h 57 % 0.0 mm
17:59 23.6 °C 15.0 °C 1013.1 hPa West 16.9 km/h 32.0 km/h 58 % 0.0 mm
18:04 23.6 °C 15.0 °C 1013.1 hPa WSW 21.6 km/h 30.9 km/h 57 % 0.0 mm
18:09 23.3 °C 14.0 °C 1013.1 hPa West 23.8 km/h 32.8 km/h 57 % 0.0 mm
18:14 23.3 °C 14.0 °C 1013.1 hPa West 20.1 km/h 36.4 km/h 57 % 0.0 mm
18:19 23.7 °C 14.0 °C 1012.1 hPa West 10.5 km/h 36.4 km/h 55 % 0.0 mm
18:24 23.6 °C 14.0 °C 1012.1 hPa West 24.5 km/h 32.3 km/h 55 % 0.0 mm
18:29 23.4 °C 14.0 °C 1012.1 hPa West 20.9 km/h 32.3 km/h 55 % 0.0 mm
18:34 23.3 °C 14.0 °C 1012.1 hPa West 27.4 km/h 31.4 km/h 55 % 0.0 mm
18:39 23.3 °C 14.0 °C 1012.1 hPa West 25.9 km/h 37.8 km/h 54 % 0.0 mm
18:44 23.2 °C 14.0 °C 1012.1 hPa WSW 36.4 km/h 37.8 km/h 55 % 0.0 mm
18:49 22.7 °C 13.0 °C 1014.1 hPa WNW 27.7 km/h 36.4 km/h 56 % 0.0 mm
18:54 22.3 °C 13.0 °C 1014.1 hPa WSW 17.2 km/h 36.4 km/h 56 % 0.0 mm
18:59 22.0 °C 14.0 °C 1014.1 hPa WSW 17.7 km/h 36.4 km/h 59 % 0.0 mm
19:04 21.9 °C 14.0 °C 1013.1 hPa West 15.8 km/h 32.0 km/h 60 % 0.0 mm
19:09 21.7 °C 14.0 °C 1013.1 hPa West 18.3 km/h 32.0 km/h 60 % 0.0 mm
19:14 21.4 °C 13.0 °C 1013.1 hPa SSW 20.1 km/h 33.5 km/h 61 % 0.0 mm
19:19 21.2 °C 14.0 °C 1013.1 hPa West 27.4 km/h 33.5 km/h 62 % 0.0 mm
19:24 21.0 °C 14.0 °C 1013.1 hPa West 31.7 km/h 32.8 km/h 64 % 0.0 mm
19:30 20.9 °C 14.0 °C 1013.1 hPa WSW 23.3 km/h 31.7 km/h 65 % 0.0 mm
19:35 20.7 °C 14.0 °C 1013.1 hPa West 23.3 km/h 32.0 km/h 66 % 0.0 mm
19:40 20.6 °C 14.0 °C 1013.1 hPa West 21.2 km/h 32.0 km/h 67 % 0.0 mm
19:45 20.8 °C 14.0 °C 1013.1 hPa West 20.1 km/h 30.9 km/h 67 % 0.0 mm
19:50 20.7 °C 15.0 °C 1013.1 hPa West 16.9 km/h 28.5 km/h 68 % 0.0 mm
19:55 20.8 °C 15.0 °C 1013.1 hPa West 20.6 km/h 27.7 km/h 68 % 0.0 mm
20:00 21.1 °C 15.0 °C 1013.1 hPa WSW 24.5 km/h 27.7 km/h 67 % 0.0 mm
20:05 20.9 °C 15.0 °C 1013.1 hPa WSW 15.8 km/h 27.4 km/h 68 % 0.0 mm
20:10 20.8 °C 15.0 °C 1013.1 hPa West 28.5 km/h 32.0 km/h 68 % 0.0 mm
20:15 20.5 °C 15.0 °C 1013.1 hPa WSW 22.7 km/h 32.0 km/h 68 % 0.0 mm
20:20 20.3 °C 14.0 °C 1013.1 hPa West 22.4 km/h 28.0 km/h 68 % 0.0 mm
20:25 20.2 °C 14.0 °C 1013.1 hPa WSW 16.9 km/h 32.0 km/h 68 % 0.0 mm
20:30 20.1 °C 14.0 °C 1013.1 hPa SW 16.9 km/h 32.0 km/h 69 % 0.0 mm
20:35 20.0 °C 14.0 °C 1014.1 hPa WSW 22.7 km/h 31.4 km/h 69 % 0.0 mm
20:37 20.0 °C 14.0 °C 1014.1 hPa West 17.2 km/h 31.4 km/h 69 % 0.0 mm
20:42 19.9 °C 14.0 °C 1014.1 hPa West 17.7 km/h 31.4 km/h 70 % 0.0 mm
20:48 19.8 °C 14.0 °C 1014.1 hPa WSW 14.0 km/h 26.7 km/h 70 % 0.0 mm
20:53 19.8 °C 14.0 °C 1014.1 hPa WSW 16.6 km/h 26.7 km/h 71 % 0.0 mm
20:58 19.7 °C 14.0 °C 1014.1 hPa West 16.3 km/h 20.9 km/h 71 % 0.0 mm
21:03 19.6 °C 14.0 °C 1014.1 hPa West 16.3 km/h 20.9 km/h 71 % 0.0 mm
21:04 19.6 °C 14.0 °C 1014.1 hPa West 21.2 km/h 21.2 km/h 71 % 0.0 mm
21:09 19.6 °C 15.0 °C 1014.1 hPa West 16.6 km/h 21.2 km/h 72 % 0.0 mm
21:14 19.5 °C 15.0 °C 1014.1 hPa SW 16.6 km/h 21.2 km/h 72 % 0.0 mm
21:19 19.5 °C 15.0 °C 1013.1 hPa WSW 9.3 km/h 18.0 km/h 72 % 0.0 mm
21:24 19.4 °C 14.0 °C 1013.1 hPa WSW 21.2 km/h 24.5 km/h 73 % 0.0 mm
21:29 19.3 °C 14.0 °C 1013.1 hPa West 12.6 km/h 24.8 km/h 73 % 0.0 mm
21:34 19.2 °C 15.0 °C 1014.1 hPa West 9.3 km/h 24.8 km/h 74 % 0.0 mm
21:39 19.1 °C 15.0 °C 1014.1 hPa West 13.7 km/h 17.7 km/h 75 % 0.0 mm
21:44 19.0 °C 15.0 °C 1014.1 hPa WSW 17.7 km/h 20.9 km/h 76 % 0.0 mm
21:49 18.9 °C 15.0 °C 1014.1 hPa West 15.1 km/h 20.9 km/h 77 % 0.0 mm
21:54 18.9 °C 15.0 °C 1014.1 hPa West 14.0 km/h 19.8 km/h 77 % 0.0 mm
21:59 18.7 °C 15.0 °C 1014.1 hPa WSW 12.6 km/h 19.8 km/h 78 % 0.0 mm
22:04 18.6 °C 15.0 °C 1014.1 hPa WSW 9.7 km/h 15.8 km/h 78 % 0.0 mm
22:09 18.5 °C 15.0 °C 1014.1 hPa WSW 10.1 km/h 14.0 km/h 78 % 0.0 mm
22:14 18.4 °C 15.0 °C 1014.1 hPa WSW 12.2 km/h 15.8 km/h 79 % 0.0 mm
22:20 18.4 °C 15.0 °C 1014.1 hPa West 19.1 km/h 20.6 km/h 80 % 0.0 mm
22:25 18.3 °C 15.0 °C 1014.1 hPa West 16.6 km/h 20.6 km/h 80 % 0.0 mm
22:30 18.2 °C 15.0 °C 1014.1 hPa WSW 9.7 km/h 19.5 km/h 81 % 0.0 mm
22:35 18.1 °C 15.0 °C 1014.1 hPa West 14.0 km/h 17.7 km/h 81 % 0.0 mm
22:40 18.0 °C 15.0 °C 1014.1 hPa WSW 8.7 km/h 17.7 km/h 82 % 0.0 mm
22:45 17.9 °C 15.0 °C 1014.1 hPa West 14.0 km/h 15.8 km/h 82 % 0.0 mm
22:50 17.9 °C 15.0 °C 1014.1 hPa WSW 11.9 km/h 17.2 km/h 83 % 0.0 mm
22:55 17.8 °C 15.0 °C 1014.1 hPa SSW 8.7 km/h 17.2 km/h 83 % 0.0 mm
23:00 17.7 °C 15.0 °C 1014.1 hPa West 11.6 km/h 16.6 km/h 83 % 0.0 mm
23:05 17.5 °C 15.0 °C 1014.1 hPa West 7.6 km/h 13.7 km/h 83 % 0.0 mm
23:10 17.4 °C 15.0 °C 1014.1 hPa West 11.9 km/h 13.0 km/h 84 % 0.0 mm
23:15 17.3 °C 15.0 °C 1014.1 hPa WSW 7.9 km/h 13.0 km/h 84 % 0.0 mm
23:20 17.3 °C 15.0 °C 1014.1 hPa SW 13.7 km/h 17.7 km/h 85 % 0.0 mm
23:25 17.2 °C 15.0 °C 1014.1 hPa West 9.7 km/h 17.7 km/h 86 % 0.0 mm
23:30 17.1 °C 15.0 °C 1014.1 hPa WSW 12.6 km/h 16.6 km/h 86 % 0.0 mm
23:35 17.0 °C 15.0 °C 1015.1 hPa WSW 9.7 km/h 13.7 km/h 86 % 0.0 mm
23:40 16.9 °C 15.0 °C 1015.1 hPa West 12.2 km/h 15.4 km/h 86 % 0.0 mm
23:45 16.8 °C 14.0 °C 1015.1 hPa WSW 7.9 km/h 15.4 km/h 86 % 0.0 mm
23:50 16.7 °C 15.0 °C 1015.1 hPa WSW 9.7 km/h 14.0 km/h 87 % 0.0 mm
23:55 16.6 °C 15.0 °C 1015.1 hPa WSW 11.6 km/h 14.0 km/h 87 % 0.0 mm
Le Gheer Warneton
Courtoisie de Weather Underground - 2.25 mb

Mise a jour : 17-12-17 07:14:12
Généré par Cumulus 1.9.4 (1099)